createdAt,value
2018-12-31T00:01:45.832Z,100343.69
2018-12-31T00:04:16.798Z,100348.80
2018-12-31T00:06:47.268Z,100344.05
2018-12-31T00:09:18.262Z,100359.41
2018-12-31T00:11:48.730Z,100347.52
2018-12-31T00:14:19.218Z,100361.81
2018-12-31T00:16:49.708Z,100365.09
2018-12-31T00:19:20.402Z,100371.03
2018-12-31T00:21:51.349Z,100386.59
2018-12-31T00:24:21.932Z,100385.31
2018-12-31T00:26:52.866Z,100386.80
2018-12-31T00:29:23.496Z,100394.73
2018-12-31T00:31:54.021Z,100387.94
2018-12-31T00:34:25.131Z,100390.13
2018-12-31T00:36:55.539Z,100385.78
2018-12-31T00:39:26.409Z,100399.44
2018-12-31T00:41:57.337Z,100401.70
2018-12-31T00:44:27.880Z,100401.75
2018-12-31T00:46:58.377Z,100402.27
2018-12-31T00:49:28.866Z,100400.84
2018-12-31T00:52:00.828Z,100406.87
2018-12-31T00:54:31.403Z,100415.67
2018-12-31T00:57:02.092Z,100421.45
2018-12-31T00:59:32.676Z,100428.24
2018-12-31T01:02:03.178Z,100425.62
2018-12-31T01:04:33.549Z,100430.19
2018-12-31T01:07:04.164Z,100436.22
2018-12-31T01:09:34.759Z,100438.62
2018-12-31T01:12:05.404Z,100446.50
2018-12-31T01:14:36.073Z,100456.52
2018-12-31T01:17:07.112Z,100458.31
2018-12-31T01:19:37.967Z,100460.72
2018-12-31T01:22:08.631Z,100454.39
2018-12-31T01:24:40.241Z,100454.02
2018-12-31T01:27:11.087Z,100459.55
2018-12-31T01:29:41.695Z,100456.94
2018-12-31T01:32:12.249Z,100454.59
2018-12-31T01:34:42.875Z,100464.09
2018-12-31T01:37:13.669Z,100467.53
2018-12-31T01:39:44.189Z,100466.59
2018-12-31T01:42:15.086Z,100460.77
2018-12-31T01:44:45.890Z,100463.88
2018-12-31T01:47:16.417Z,100463.48
2018-12-31T01:49:46.921Z,100469.00
2018-12-31T01:52:17.638Z,100477.89
2018-12-31T01:54:48.310Z,100478.47
2018-12-31T01:57:19.010Z,100483.12
2018-12-31T01:59:49.954Z,100492.95
2018-12-31T02:02:20.835Z,100487.83
2018-12-31T02:04:51.608Z,100492.58
2018-12-31T02:07:22.490Z,100502.97
2018-12-31T02:09:53.255Z,100502.10
2018-12-31T02:12:23.878Z,100507.22
2018-12-31T02:14:54.745Z,100509.36
2018-12-31T02:17:26.359Z,100510.17
2018-12-31T02:19:57.190Z,100506.86
2018-12-31T02:22:27.902Z,100509.62
2018-12-31T02:24:58.324Z,100515.95
2018-12-31T02:27:28.888Z,100518.56
2018-12-31T02:29:59.407Z,100517.69
2018-12-31T02:32:30.107Z,100501.27
2018-12-31T02:35:00.674Z,100516.30
2018-12-31T02:37:31.105Z,100510.48
2018-12-31T02:40:01.599Z,100515.08
2018-12-31T02:42:32.026Z,100511.77
2018-12-31T02:45:02.418Z,100514.58
2018-12-31T02:47:32.821Z,100506.91
2018-12-31T02:50:03.250Z,100499.84
2018-12-31T02:52:33.712Z,100499.94
2018-12-31T02:55:04.267Z,100509.09
2018-12-31T02:57:34.790Z,100502.25
2018-12-31T03:00:06.020Z,100506.17
2018-12-31T03:02:36.465Z,100507.64
2018-12-31T03:05:07.420Z,100507.94
2018-12-31T03:07:37.948Z,100512.98
2018-12-31T03:10:08.554Z,100510.78
2018-12-31T03:12:39.065Z,100520.05
2018-12-31T03:15:09.595Z,100516.25
2018-12-31T03:17:40.513Z,100521.52
2018-12-31T03:20:11.111Z,100520.25
2018-12-31T03:22:41.630Z,100532.62
2018-12-31T03:25:12.311Z,100530.62
2018-12-31T03:27:42.881Z,100528.67
2018-12-31T03:30:13.503Z,100528.19
2018-12-31T03:32:44.020Z,100532.15
2018-12-31T03:35:14.509Z,100540.97
2018-12-31T03:37:44.998Z,100540.81
2018-12-31T03:40:15.549Z,100549.02
2018-12-31T03:42:46.081Z,100543.72
2018-12-31T03:45:16.615Z,100549.02
2018-12-31T03:47:47.624Z,100549.98
2018-12-31T03:50:18.261Z,100545.47
2018-12-31T03:52:48.728Z,100547.59
2018-12-31T03:55:19.204Z,100556.80
2018-12-31T03:57:49.569Z,100553.09
2018-12-31T04:00:20.036Z,100554.58
2018-12-31T04:02:50.563Z,100554.85
2018-12-31T04:05:20.921Z,100557.17
2018-12-31T04:07:53.185Z,100554.92
2018-12-31T04:10:23.666Z,100553.09
2018-12-31T04:12:54.091Z,100564.11
2018-12-31T04:15:24.663Z,100569.86
2018-12-31T04:17:55.097Z,100573.01
2018-12-31T04:20:25.595Z,100568.33
2018-12-31T04:22:56.055Z,100555.61
2018-12-31T04:25:26.591Z,100563.19
2018-12-31T04:27:56.981Z,100573.80
2018-12-31T04:30:27.410Z,100568.93
2018-12-31T04:32:57.968Z,100565.14
2018-12-31T04:35:28.529Z,100569.59
2018-12-31T04:37:59.117Z,100570.55
2018-12-31T04:40:29.509Z,100569.99
2018-12-31T04:43:00.056Z,100568.03
2018-12-31T04:45:30.520Z,100577.33
2018-12-31T04:48:01.003Z,100577.52
2018-12-31T04:50:31.601Z,100579.71
2018-12-31T04:53:02.136Z,100591.92
2018-12-31T04:55:32.686Z,100583.84
2018-12-31T04:58:03.789Z,100590.11
2018-12-31T05:00:34.256Z,100596.16
2018-12-31T05:03:04.716Z,100597.27
2018-12-31T05:05:35.248Z,100603.25
2018-12-31T05:08:05.906Z,100605.84
2018-12-31T05:10:36.311Z,100607.34
2018-12-31T05:13:06.815Z,100611.36
2018-12-31T05:15:37.211Z,100601.16
2018-12-31T05:18:07.687Z,100610.22
2018-12-31T05:20:38.216Z,100604.37
2018-12-31T05:23:08.790Z,100612.21
2018-12-31T05:25:39.312Z,100605.12
2018-12-31T05:28:09.947Z,100621.92
2018-12-31T05:30:40.305Z,100619.87
2018-12-31T05:33:10.675Z,100626.30
2018-12-31T05:35:41.147Z,100630.69
2018-12-31T05:38:11.625Z,100619.38
2018-12-31T05:40:42.187Z,100635.41
2018-12-31T05:43:12.788Z,100637.59
2018-12-31T05:45:43.241Z,100636.14
2018-12-31T05:48:13.702Z,100645.05
2018-12-31T05:50:44.156Z,100646.13
2018-12-31T05:53:15.282Z,100647.79
2018-12-31T05:55:45.806Z,100644.52
2018-12-31T05:58:16.246Z,100660.55
2018-12-31T06:00:46.747Z,100659.08
2018-12-31T06:03:17.216Z,100664.77
2018-12-31T06:05:47.759Z,100666.20
2018-12-31T06:08:18.189Z,100665.84
2018-12-31T06:10:49.109Z,100662.62
2018-12-31T06:13:19.647Z,100665.69
2018-12-31T06:15:50.155Z,100671.41
2018-12-31T06:18:20.593Z,100674.81
2018-12-31T06:20:51.299Z,100672.11
2018-12-31T06:23:21.806Z,100681.06
2018-12-31T06:25:52.410Z,100675.58
2018-12-31T06:28:23.040Z,100664.71
2018-12-31T06:30:53.557Z,100677.50
2018-12-31T06:33:24.030Z,100683.14
2018-12-31T06:35:54.400Z,100679.36
2018-12-31T06:38:24.832Z,100686.03
2018-12-31T06:40:55.497Z,100684.78
2018-12-31T06:43:27.277Z,100699.23
2018-12-31T06:45:57.939Z,100693.78
2018-12-31T06:48:28.596Z,100695.44
2018-12-31T06:50:59.125Z,100709.64
2018-12-31T06:53:30.093Z,100711.64
2018-12-31T06:56:00.690Z,100714.20
2018-12-31T06:58:31.102Z,100699.13
2018-12-31T07:01:01.712Z,100707.67
2018-12-31T07:03:32.146Z,100724.08
2018-12-31T07:06:02.855Z,100722.47
2018-12-31T07:08:33.329Z,100729.18
2018-12-31T07:11:04.075Z,100738.28
2018-12-31T07:13:34.600Z,100737.74
2018-12-31T07:16:05.099Z,100745.75
2018-12-31T07:18:35.551Z,100743.19
2018-12-31T07:21:06.200Z,100748.28
2018-12-31T07:23:36.636Z,100748.68
2018-12-31T07:26:07.191Z,100750.48
2018-12-31T07:28:37.682Z,100754.11
2018-12-31T07:31:08.592Z,100754.98
2018-12-31T07:33:39.350Z,100761.16
2018-12-31T07:36:09.986Z,100753.49
2018-12-31T07:38:40.584Z,100752.19
2018-12-31T07:41:11.271Z,100751.06
2018-12-31T07:43:42.040Z,100760.36
2018-12-31T07:46:12.716Z,100764.12
2018-12-31T07:48:43.224Z,100763.90
2018-12-31T07:51:13.933Z,100768.77
2018-12-31T07:53:44.676Z,100766.53
2018-12-31T07:56:15.219Z,100772.42
2018-12-31T07:58:45.870Z,100775.19
2018-12-31T08:01:16.627Z,100775.55
2018-12-31T08:03:47.424Z,100770.39
2018-12-31T08:06:18.072Z,100779.23
2018-12-31T08:08:48.735Z,100772.92
2018-12-31T08:11:19.286Z,100773.05
2018-12-31T08:13:49.850Z,100773.36
2018-12-31T08:16:20.636Z,100773.97
2018-12-31T08:18:51.257Z,100776.61
2018-12-31T08:21:21.749Z,100779.45
2018-12-31T08:23:52.290Z,100785.00
2018-12-31T08:26:23.137Z,100786.48
2018-12-31T08:28:53.670Z,100785.66
2018-12-31T08:31:25.786Z,100789.51
2018-12-31T08:33:59.151Z,100792.67
2018-12-31T08:36:29.897Z,100799.00
2018-12-31T08:39:00.607Z,100794.39
2018-12-31T08:41:31.519Z,100803.42
2018-12-31T08:44:02.266Z,100795.23
2018-12-31T08:46:33.353Z,100795.62
2018-12-31T08:49:04.133Z,100798.50
2018-12-31T08:51:34.511Z,100798.00
2018-12-31T08:54:09.651Z,100798.78
2018-12-31T08:56:40.145Z,100801.91
2018-12-31T08:59:10.641Z,100804.06
2018-12-31T09:01:41.244Z,100801.70
2018-12-31T09:04:11.802Z,100800.71
2018-12-31T09:06:42.330Z,100812.42
2018-12-31T09:09:12.683Z,100809.69
2018-12-31T09:11:43.193Z,100808.66
2018-12-31T09:14:14.131Z,100820.22
2018-12-31T09:16:44.602Z,100816.33
2018-12-31T09:19:15.215Z,100816.45
2018-12-31T09:21:45.700Z,100818.47
2018-12-31T09:24:16.791Z,100814.21
2018-12-31T09:26:47.417Z,100826.11
2018-12-31T09:29:18.119Z,100833.58
2018-12-31T09:31:49.447Z,100833.84
2018-12-31T09:34:19.935Z,100831.74
2018-12-31T09:36:51.690Z,100827.39
2018-12-31T09:39:22.245Z,100831.95
2018-12-31T09:41:53.696Z,100827.77
2018-12-31T09:44:24.339Z,100821.67
2018-12-31T09:46:54.850Z,100820.73
2018-12-31T09:49:25.340Z,100817.13
2018-12-31T09:51:55.875Z,100825.04
2018-12-31T09:54:26.292Z,100817.75
2018-12-31T09:56:59.274Z,100822.65
2018-12-31T09:59:29.957Z,100824.02
2018-12-31T10:02:00.407Z,100821.13
2018-12-31T10:04:30.950Z,100829.92
2018-12-31T10:07:01.595Z,100824.52
2018-12-31T10:09:32.187Z,100825.91
2018-12-31T10:12:02.692Z,100835.15
2018-12-31T10:14:33.568Z,100823.98
2018-12-31T10:17:04.142Z,100821.23
2018-12-31T10:19:34.865Z,100822.31
2018-12-31T10:22:05.524Z,100827.63
2018-12-31T10:24:36.117Z,100825.82
2018-12-31T10:27:06.817Z,100828.62
2018-12-31T10:29:37.500Z,100831.56
2018-12-31T10:32:08.008Z,100821.03
2018-12-31T10:34:38.429Z,100829.01
2018-12-31T10:37:08.997Z,100827.56
2018-12-31T10:39:39.529Z,100824.98
2018-12-31T10:42:09.899Z,100824.43
2018-12-31T10:44:40.449Z,100823.84
2018-12-31T10:47:11.062Z,100819.34
2018-12-31T10:49:41.566Z,100818.50
2018-12-31T10:52:12.205Z,100820.98
2018-12-31T10:54:42.635Z,100817.70
2018-12-31T10:57:13.096Z,100814.31
2018-12-31T10:59:43.699Z,100816.42
2018-12-31T11:02:14.186Z,100818.78
2018-12-31T11:04:44.779Z,100820.81
2018-12-31T11:07:15.191Z,100826.92
2018-12-31T11:09:45.789Z,100820.30
2018-12-31T11:12:16.439Z,100819.08
2018-12-31T11:14:46.980Z,100823.66
2018-12-31T11:17:17.554Z,100826.86
2018-12-31T11:19:48.119Z,100822.34
2018-12-31T11:22:18.636Z,100821.32
2018-12-31T11:24:49.225Z,100813.16
2018-12-31T11:27:19.775Z,100822.09
2018-12-31T11:29:50.249Z,100823.70
2018-12-31T11:32:20.811Z,100829.39
2018-12-31T11:34:51.341Z,100826.53
2018-12-31T11:37:21.984Z,100825.61
2018-12-31T11:39:52.559Z,100830.62
2018-12-31T11:42:23.206Z,100819.17
2018-12-31T11:44:53.630Z,100817.17
2018-12-31T11:47:24.308Z,100818.12
2018-12-31T11:49:55.116Z,100824.50
2018-12-31T11:52:25.768Z,100820.52
2018-12-31T11:54:56.251Z,100833.30
2018-12-31T11:57:26.846Z,100834.40
2018-12-31T11:59:57.431Z,100834.75
2018-12-31T12:02:28.016Z,100833.30
2018-12-31T12:04:58.706Z,100820.11
2018-12-31T12:07:29.207Z,100824.38
2018-12-31T12:09:59.791Z,100813.56
2018-12-31T12:12:30.769Z,100810.11
2018-12-31T12:15:01.436Z,100809.23
2018-12-31T12:17:32.045Z,100810.23
2018-12-31T12:20:02.648Z,100801.20
2018-12-31T12:22:33.681Z,100803.91
2018-12-31T12:25:04.409Z,100804.58
2018-12-31T12:27:35.457Z,100809.45
2018-12-31T12:30:07.582Z,100806.92
2018-12-31T12:32:38.137Z,100809.14
2018-12-31T12:35:08.747Z,100813.73
2018-12-31T12:37:39.226Z,100814.30
2018-12-31T12:40:09.931Z,100811.57
2018-12-31T12:42:40.537Z,100811.11
2018-12-31T12:45:11.087Z,100812.22
2018-12-31T12:47:41.793Z,100812.41
2018-12-31T12:50:12.426Z,100817.17
2018-12-31T12:52:43.021Z,100811.51
2018-12-31T12:55:13.926Z,100820.22
2018-12-31T12:57:44.551Z,100819.87
2018-12-31T13:00:15.217Z,100818.03
2018-12-31T13:02:46.950Z,100825.55
2018-12-31T13:05:17.816Z,100816.75
2018-12-31T13:07:48.351Z,100817.09
2018-12-31T13:10:19.159Z,100821.68
2018-12-31T13:12:50.075Z,100826.41
2018-12-31T13:15:20.650Z,100834.63
2018-12-31T13:17:51.857Z,100837.18
2018-12-31T13:20:22.525Z,100836.22
2018-12-31T13:22:53.287Z,100839.91
2018-12-31T13:25:23.855Z,100836.09
2018-12-31T13:27:54.465Z,100841.54
2018-12-31T13:30:25.257Z,100832.59
2018-12-31T13:32:55.887Z,100843.27
2018-12-31T13:35:26.496Z,100839.72
2018-12-31T13:37:57.116Z,100843.34
2018-12-31T13:40:27.571Z,100825.88
2018-12-31T13:42:58.172Z,100826.92
2018-12-31T13:45:28.919Z,100829.71
2018-12-31T13:47:59.714Z,100822.89
2018-12-31T13:50:31.886Z,100829.52
2018-12-31T13:53:02.609Z,100831.52
2018-12-31T13:55:33.130Z,100836.28
2018-12-31T13:58:03.552Z,100831.84
2018-12-31T14:00:34.232Z,100829.73
2018-12-31T14:03:04.764Z,100832.29
2018-12-31T14:05:35.375Z,100825.27
2018-12-31T14:08:06.056Z,100826.17
2018-12-31T14:10:36.748Z,100829.69
2018-12-31T14:13:07.582Z,100833.52
2018-12-31T14:15:38.198Z,100826.19
2018-12-31T14:18:08.727Z,100824.16
2018-12-31T14:20:39.356Z,100823.45
2018-12-31T14:23:09.967Z,100822.22
2018-12-31T14:25:40.582Z,100820.59
2018-12-31T14:28:11.262Z,100818.22
2018-12-31T14:30:41.934Z,100821.13
2018-12-31T14:33:12.646Z,100819.45
2018-12-31T14:35:45.865Z,100819.86
2018-12-31T14:38:15.707Z,100826.74
2018-12-31T14:40:46.477Z,100810.84
2018-12-31T14:43:17.166Z,100814.17
2018-12-31T14:45:48.260Z,100814.20
2018-12-31T14:48:18.916Z,100822.72
2018-12-31T14:50:49.640Z,100819.28
2018-12-31T14:53:20.135Z,100824.19
2018-12-31T14:55:50.846Z,100832.22
2018-12-31T14:58:21.309Z,100830.57
2018-12-31T15:00:51.926Z,100839.88
2018-12-31T15:03:22.541Z,100834.38
2018-12-31T15:05:53.201Z,100842.75
2018-12-31T15:08:24.087Z,100842.58
2018-12-31T15:10:54.625Z,100849.84
2018-12-31T15:13:25.283Z,100850.20
2018-12-31T15:15:56.955Z,100849.78
2018-12-31T15:18:27.579Z,100843.25
2018-12-31T15:20:58.132Z,100841.97
2018-12-31T15:23:28.672Z,100851.35
2018-12-31T15:25:59.183Z,100852.25
2018-12-31T15:28:29.624Z,100852.48
2018-12-31T15:31:00.322Z,100862.47
2018-12-31T15:33:30.849Z,100857.95
2018-12-31T15:36:01.523Z,100860.50
2018-12-31T15:38:32.097Z,100855.02
2018-12-31T15:41:02.740Z,100857.73
2018-12-31T15:43:33.342Z,100860.13
2018-12-31T15:46:03.947Z,100861.16
2018-12-31T15:48:34.586Z,100865.03
2018-12-31T15:51:05.242Z,100864.69
2018-12-31T15:53:35.950Z,100876.54
2018-12-31T15:56:06.479Z,100877.65
2018-12-31T15:58:37.239Z,100876.39
2018-12-31T16:01:07.937Z,100882.06
2018-12-31T16:03:38.455Z,100883.34
2018-12-31T16:06:09.016Z,100876.80
2018-12-31T16:08:39.679Z,100872.41
2018-12-31T16:11:10.230Z,100869.50
2018-12-31T16:13:40.791Z,100873.67
2018-12-31T16:16:11.434Z,100869.52
2018-12-31T16:18:42.115Z,100873.52
2018-12-31T16:21:12.663Z,100864.94
2018-12-31T16:23:43.272Z,100871.49
2018-12-31T16:26:13.719Z,100864.75
2018-12-31T16:28:44.134Z,100867.30
2018-12-31T16:31:14.786Z,100870.76
2018-12-31T16:33:45.398Z,100866.73
2018-12-31T16:36:16.076Z,100871.52
2018-12-31T16:38:47.810Z,100880.07
2018-12-31T16:41:18.562Z,100887.36
2018-12-31T16:43:49.297Z,100886.80
2018-12-31T16:46:20.022Z,100891.19
2018-12-31T16:48:50.706Z,100889.16
2018-12-31T16:51:21.415Z,100895.92
2018-12-31T16:53:52.203Z,100888.59
2018-12-31T16:56:22.819Z,100887.15
2018-12-31T16:58:53.572Z,100882.06
2018-12-31T17:01:24.269Z,100883.19
2018-12-31T17:03:56.247Z,100876.24
2018-12-31T17:06:27.023Z,100876.09
2018-12-31T17:08:58.181Z,100875.41
2018-12-31T17:11:28.789Z,100871.79
2018-12-31T17:13:59.301Z,100880.36
2018-12-31T17:16:29.896Z,100873.97
2018-12-31T17:19:00.399Z,100878.55
2018-12-31T17:21:31.988Z,100875.63
2018-12-31T17:24:02.906Z,100885.45
2018-12-31T17:26:33.896Z,100892.75
2018-12-31T17:29:04.687Z,100883.48
2018-12-31T17:31:35.186Z,100891.15
2018-12-31T17:34:05.889Z,100888.23
2018-12-31T17:36:36.507Z,100880.77
2018-12-31T17:39:10.402Z,100874.08
2018-12-31T17:41:40.924Z,100866.62
2018-12-31T17:44:12.036Z,100860.73
2018-12-31T17:46:42.833Z,100858.55
2018-12-31T17:49:13.495Z,100862.50
2018-12-31T17:51:44.061Z,100846.67
2018-12-31T17:54:14.851Z,100846.09
2018-12-31T17:56:45.816Z,100851.34
2018-12-31T17:59:16.707Z,100848.97
2018-12-31T18:01:47.456Z,100854.26
2018-12-31T18:04:18.032Z,100851.34
2018-12-31T18:06:48.736Z,100851.16
2018-12-31T18:09:19.492Z,100857.90
2018-12-31T18:11:50.030Z,100855.55
2018-12-31T18:14:20.659Z,100855.22
2018-12-31T18:16:51.089Z,100848.35
2018-12-31T18:19:21.722Z,100844.63
2018-12-31T18:21:52.262Z,100849.33
2018-12-31T18:24:22.868Z,100851.51
2018-12-31T18:26:53.385Z,100847.31
2018-12-31T18:29:24.116Z,100859.00
2018-12-31T18:31:54.916Z,100866.05
2018-12-31T18:34:25.624Z,100871.34
2018-12-31T18:36:56.123Z,100864.44
2018-12-31T18:39:26.688Z,100863.90
2018-12-31T18:41:57.680Z,100870.61
2018-12-31T18:44:28.219Z,100875.10
2018-12-31T18:46:58.821Z,100869.84
2018-12-31T18:49:29.411Z,100872.58
2018-12-31T18:52:01.571Z,100859.79
2018-12-31T18:54:32.193Z,100856.11
2018-12-31T18:57:02.797Z,100868.72
2018-12-31T18:59:33.373Z,100871.54
2018-12-31T19:02:03.928Z,100871.73
2018-12-31T19:04:34.772Z,100862.48
2018-12-31T19:07:05.312Z,100865.03
2018-12-31T19:09:36.006Z,100855.19
2018-12-31T19:12:06.676Z,100855.89
2018-12-31T19:14:37.324Z,100850.98
2018-12-31T19:17:07.998Z,100853.16
2018-12-31T19:19:38.406Z,100850.26
2018-12-31T19:22:09.082Z,100852.62
2018-12-31T19:24:39.717Z,100851.03
2018-12-31T19:27:10.263Z,100857.43
2018-12-31T19:29:40.836Z,100855.06
2018-12-31T19:32:11.410Z,100853.97
2018-12-31T19:34:42.016Z,100851.23
2018-12-31T19:37:12.619Z,100860.53
2018-12-31T19:39:43.554Z,100857.97
2018-12-31T19:42:14.035Z,100862.88
2018-12-31T19:44:45.158Z,100855.39
2018-12-31T19:47:15.682Z,100855.73
2018-12-31T19:49:46.239Z,100849.36
2018-12-31T19:52:17.325Z,100854.84
2018-12-31T19:54:47.929Z,100851.54
2018-12-31T19:57:18.776Z,100849.35
2018-12-31T19:59:49.499Z,100849.35
2018-12-31T20:02:20.547Z,100858.82
2018-12-31T20:04:51.084Z,100857.52
2018-12-31T20:07:21.737Z,100849.64
2018-12-31T20:09:52.236Z,100850.02
2018-12-31T20:12:22.756Z,100856.40
2018-12-31T20:14:53.231Z,100851.64
2018-12-31T20:17:23.924Z,100847.33
2018-12-31T20:19:55.435Z,100839.66
2018-12-31T20:22:25.983Z,100835.30
2018-12-31T20:24:56.651Z,100833.86
2018-12-31T20:27:27.122Z,100839.34
2018-12-31T20:29:57.930Z,100844.98
2018-12-31T20:32:28.872Z,100837.13
2018-12-31T20:34:59.584Z,100838.59
2018-12-31T20:37:30.157Z,100839.34
2018-12-31T20:40:00.912Z,100842.45
2018-12-31T20:42:31.734Z,100836.41
2018-12-31T20:45:02.329Z,100838.59
2018-12-31T20:47:32.794Z,100822.20
2018-12-31T20:50:04.066Z,100819.13
2018-12-31T20:52:36.396Z,100812.93
2018-12-31T20:55:07.110Z,100810.56
2018-12-31T20:57:37.820Z,100802.34
2018-12-31T21:00:09.326Z,100781.23
2018-12-31T21:02:39.869Z,100789.05
2018-12-31T21:05:11.514Z,100781.40
2018-12-31T21:07:42.529Z,100782.15
2018-12-31T21:10:13.614Z,100768.81
2018-12-31T21:12:44.227Z,100765.91
2018-12-31T21:15:16.333Z,100762.80
2018-12-31T21:17:47.037Z,100769.75
2018-12-31T21:20:17.667Z,100763.19
2018-12-31T21:22:48.436Z,100756.27
2018-12-31T21:25:18.960Z,100750.62
2018-12-31T21:27:49.655Z,100745.17
2018-12-31T21:30:20.322Z,100744.80
2018-12-31T21:32:51.072Z,100738.41
2018-12-31T21:35:21.942Z,100741.50
2018-12-31T21:37:52.491Z,100735.61
2018-12-31T21:40:23.164Z,100739.25
2018-12-31T21:42:53.911Z,100735.05
2018-12-31T21:45:24.557Z,100741.41
2018-12-31T21:47:55.496Z,100741.38
2018-12-31T21:50:26.209Z,100739.00
2018-12-31T21:52:56.831Z,100735.58
2018-12-31T21:55:27.374Z,100733.92
2018-12-31T21:57:58.122Z,100734.05
2018-12-31T22:00:28.496Z,100725.17
2018-12-31T22:02:59.101Z,100721.47
2018-12-31T22:05:29.726Z,100725.80
2018-12-31T22:08:00.442Z,100718.89
2018-12-31T22:10:31.112Z,100719.03
2018-12-31T22:13:01.680Z,100712.88
2018-12-31T22:15:32.727Z,100705.92
2018-12-31T22:18:03.432Z,100708.50
2018-12-31T22:20:34.051Z,100700.98
2018-12-31T22:23:05.008Z,100698.48
2018-12-31T22:25:35.547Z,100699.47
2018-12-31T22:28:06.162Z,100691.63
2018-12-31T22:30:36.832Z,100688.88
2018-12-31T22:33:07.321Z,100681.61
2018-12-31T22:35:38.012Z,100674.67
2018-12-31T22:38:08.562Z,100673.04
2018-12-31T22:40:39.079Z,100672.70
2018-12-31T22:43:09.671Z,100671.27
2018-12-31T22:45:40.397Z,100667.04
2018-12-31T22:48:11.073Z,100668.30
2018-12-31T22:50:41.654Z,100670.34
2018-12-31T22:53:12.637Z,100665.41
2018-12-31T22:55:43.267Z,100668.10
2018-12-31T22:58:13.837Z,100662.28
2018-12-31T23:00:44.605Z,100664.88
2018-12-31T23:03:15.011Z,100649.32
2018-12-31T23:05:45.647Z,100646.41
2018-12-31T23:08:16.669Z,100641.14
2018-12-31T23:10:47.240Z,100638.75
2018-12-31T23:13:18.062Z,100631.66
2018-12-31T23:15:48.809Z,100628.19
2018-12-31T23:18:19.325Z,100628.88
2018-12-31T23:20:49.881Z,100625.61
2018-12-31T23:23:21.327Z,100619.06
2018-12-31T23:25:52.039Z,100620.70
2018-12-31T23:28:22.639Z,100613.52
2018-12-31T23:30:53.242Z,100614.68
2018-12-31T23:33:23.659Z,100606.30
2018-12-31T23:35:54.349Z,100599.77
2018-12-31T23:38:25.263Z,100591.88
2018-12-31T23:40:55.948Z,100590.83
2018-12-31T23:43:27.325Z,100584.03
2018-12-31T23:45:58.075Z,100584.03
2018-12-31T23:48:28.647Z,100584.75
2018-12-31T23:50:59.205Z,100582.36
2018-12-31T23:53:30.013Z,100573.43
2018-12-31T23:56:00.594Z,100573.79
2018-12-31T23:58:31.397Z,100558.48
